Time;durP1;ratioP1;P1;durP2;ratioP2;P2;SDS_P1;SDS_P2;PMS_P1;PMS_P2;Temp;Humidity;BMP_temperature;BMP_pressure;BME280_temperature;BME280_humidity;BME280_pressure;Samples;Min_cycle;Max_cycle;Signal;HPM_P1;HPM_P2
2023/07/26 00:00:53;;;;;;;1.17;0.97;;;22.50;80.30;;;;;;5076452;28;20461;-58
2023/07/26 00:03:20;;;;;;;1.43;0.83;;;22.50;80.20;;;;;;5085195;28;20459;-58
2023/07/26 00:05:47;;;;;;;1.53;1.20;;;22.50;80.30;;;;;;5088486;28;20467;-57
2023/07/26 00:08:14;;;;;;;1.10;0.97;;;22.40;80.20;;;;;;5082368;28;20482;-56
2023/07/26 00:10:46;;;;;;;1.20;0.87;;;22.40;80.30;;;;;;5088259;28;20978;-59
2023/07/26 00:13:13;;;;;;;1.10;0.80;;;22.40;80.40;;;;;;5087106;28;20853;-59
2023/07/26 00:15:40;;;;;;;2.03;1.10;;;22.40;80.40;;;;;;5077990;28;23082;-57
2023/07/26 00:18:07;;;;;;;1.07;0.90;;;22.40;80.40;;;;;;5080646;28;20455;-58
2023/07/26 00:20:34;;;;;;;1.10;1.00;;;22.40;80.50;;;;;;5081061;28;20550;-58
2023/07/26 00:23:02;;;;;;;1.23;1.00;;;22.40;80.60;;;;;;5083366;28;20467;-59
2023/07/26 00:25:29;;;;;;;1.67;0.97;;;22.40;80.60;;;;;;5081701;28;21175;-59
2023/07/26 00:27:57;;;;;;;1.90;1.00;;;22.40;80.60;;;;;;5072603;28;20943;-56
2023/07/26 00:30:24;;;;;;;1.37;0.77;;;22.40;80.60;;;;;;5077084;28;20541;-57
2023/07/26 00:32:50;;;;;;;1.30;1.00;;;22.40;80.70;;;;;;5081304;28;20842;-59
2023/07/26 00:35:21;;;;;;;1.60;0.90;;;22.40;80.70;;;;;;5071272;28;21487;-57
2023/07/26 00:37:47;;;;;;;1.73;0.80;;;22.40;80.90;;;;;;5078741;28;20482;-57
2023/07/26 00:40:14;;;;;;;1.40;0.90;;;22.40;80.80;;;;;;5083365;28;20455;-58
2023/07/26 00:42:41;;;;;;;1.20;0.90;;;22.40;80.90;;;;;;5076342;28;20456;-57
2023/07/26 00:45:10;;;;;;;1.50;1.10;;;22.40;80.90;;;;;;5077971;28;20847;-58
2023/07/26 00:47:37;;;;;;;2.00;1.17;;;22.40;81.00;;;;;;5073917;28;20474;-58
2023/07/26 00:50:05;;;;;;;1.30;1.10;;;22.40;81.00;;;;;;5081757;28;20470;-57
2023/07/26 00:52:32;;;;;;;1.60;0.90;;;22.30;80.90;;;;;;5077679;28;20502;-59
2023/07/26 00:55:02;;;;;;;1.20;1.10;;;22.40;81.10;;;;;;5074406;28;20459;-55
2023/07/26 00:57:29;;;;;;;1.63;1.23;;;22.30;81.00;;;;;;5077618;28;22191;-58
2023/07/26 00:59:56;;;;;;;1.10;1.00;;;22.30;81.00;;;;;;5073254;28;20808;-54
2023/07/26 01:02:25;;;;;;;1.67;0.90;;;22.30;81.20;;;;;;5073073;28;20467;-57
2023/07/26 01:04:52;;;;;;;1.30;0.90;;;22.30;81.20;;;;;;5078212;28;21165;-57
2023/07/26 01:07:24;;;;;;;1.27;0.90;;;22.30;81.20;;;;;;5074504;28;20458;-57
2023/07/26 01:09:59;;;;;;;1.00;0.70;;;22.30;81.10;;;;;;5074245;27;20470;-58
2023/07/26 01:12:34;;;;;;;1.13;0.80;;;22.30;81.10;;;;;;5077077;28;20483;-54
2023/07/26 01:15:05;;;;;;;1.40;1.20;;;22.20;81.00;;;;;;5071166;28;20455;-58
2023/07/26 01:17:33;;;;;;;1.20;1.07;;;22.30;81.10;;;;;;5073327;28;20474;-53
2023/07/26 01:20:00;;;;;;;1.00;0.80;;;22.30;81.20;;;;;;5076584;28;20464;-58
2023/07/26 01:22:28;;;;;;;1.20;0.93;;;22.30;81.10;;;;;;5082501;28;20460;-56
2023/07/26 01:24:56;;;;;;;1.40;1.10;;;22.30;81.20;;;;;;5083980;28;20455;-57
2023/07/26 01:27:23;;;;;;;1.07;0.90;;;22.20;81.10;;;;;;5082125;28;20504;-57
2023/07/26 01:29:54;;;;;;;1.47;1.17;;;22.20;81.10;;;;;;5083693;28;20460;-58
2023/07/26 01:32:23;;;;;;;1.20;0.90;;;22.20;81.10;;;;;;5082496;28;20454;-57
2023/07/26 01:34:50;;;;;;;1.20;0.83;;;22.20;81.20;;;;;;5082755;28;20486;-57
2023/07/26 01:37:18;;;;;;;5.57;1.10;;;22.20;81.20;;;;;;5069967;28;20461;-57
2023/07/26 01:39:46;;;;;;;1.23;1.10;;;22.20;81.20;;;;;;5070143;28;20478;-55
2023/07/26 01:42:14;;;;;;;1.70;1.00;;;22.20;81.20;;;;;;5071252;27;20458;-57
2023/07/26 01:44:41;;;;;;;1.30;1.17;;;22.20;81.30;;;;;;5071094;28;20448;-58
2023/07/26 01:47:08;;;;;;;2.33;1.73;;;22.20;81.40;;;;;;5077851;28;20971;-55
2023/07/26 01:49:35;;;;;;;1.30;0.90;;;22.20;81.40;;;;;;5082502;28;21988;-57
2023/07/26 01:52:01;;;;;;;1.93;1.23;;;22.20;81.50;;;;;;5072382;28;20464;-56
2023/07/26 01:54:28;;;;;;;1.47;1.00;;;22.20;81.50;;;;;;5074463;28;20558;-57
2023/07/26 01:56:56;;;;;;;1.20;0.90;;;22.20;81.60;;;;;;5076497;28;20804;-56
2023/07/26 01:59:23;;;;;;;1.40;1.00;;;22.20;81.60;;;;;;5073066;28;20452;-55
2023/07/26 02:01:49;;;;;;;1.50;1.00;;;22.20;81.70;;;;;;5067426;28;20703;-56
2023/07/26 02:04:16;;;;;;;2.00;1.23;;;22.20;81.70;;;;;;5082762;28;20959;-56
2023/07/26 02:06:43;;;;;;;1.60;1.20;;;22.20;81.70;;;;;;5076338;28;20464;-57
2023/07/26 02:09:10;;;;;;;1.10;1.00;;;22.10;81.60;;;;;;5081753;28;20474;-55
2023/07/26 02:11:36;;;;;;;1.10;0.93;;;22.10;81.70;;;;;;5084160;28;20586;-58
2023/07/26 02:14:05;;;;;;;1.27;1.00;;;22.10;81.80;;;;;;5077611;28;20479;-55
2023/07/26 02:16:31;;;;;;;2.80;1.00;;;22.10;81.80;;;;;;5079622;28;20466;-57
2023/07/26 02:18:58;;;;;;;2.00;1.00;;;22.10;81.80;;;;;;5074422;28;20548;-58
2023/07/26 02:21:25;;;;;;;1.30;1.00;;;22.10;81.90;;;;;;5069180;28;20459;-59
2023/07/26 02:23:51;;;;;;;2.00;1.40;;;22.10;81.90;;;;;;5071625;28;21089;-58
2023/07/26 02:26:18;;;;;;;1.37;1.10;;;22.10;82.00;;;;;;5067531;28;21189;-55
2023/07/26 02:28:45;;;;;;;2.70;1.77;;;22.10;82.10;;;;;;5071393;28;20471;-57
2023/07/26 02:31:13;;;;;;;1.20;0.90;;;22.10;82.10;;;;;;5070118;28;20457;-55
2023/07/26 02:33:39;;;;;;;1.83;1.07;;;22.10;82.10;;;;;;5065891;28;20549;-57
2023/07/26 02:36:06;;;;;;;1.33;1.23;;;22.10;82.10;;;;;;5074468;28;20476;-56
2023/07/26 02:38:33;;;;;;;1.43;1.20;;;22.10;82.20;;;;;;5075996;28;20506;-58
2023/07/26 02:40:59;;;;;;;1.47;1.30;;;22.10;82.30;;;;;;5075213;28;20884;-56
2023/07/26 02:43:26;;;;;;;1.17;0.93;;;22.10;82.30;;;;;;5075191;28;20460;-56
2023/07/26 02:45:53;;;;;;;2.00;1.20;;;22.10;82.40;;;;;;5072752;27;21075;-56
2023/07/26 02:48:21;;;;;;;1.60;1.10;;;22.10;82.40;;;;;;5072698;28;20451;-58
2023/07/26 02:50:47;;;;;;;1.20;1.10;;;22.10;82.50;;;;;;5073419;28;21295;-58
2023/07/26 02:53:14;;;;;;;1.50;0.93;;;22.00;82.40;;;;;;5069462;28;20751;-57
2023/07/26 02:55:42;;;;;;;1.10;0.90;;;22.10;82.60;;;;;;5077706;28;20459;-59
2023/07/26 02:58:09;;;;;;;1.33;0.97;;;22.10;82.60;;;;;;5072113;28;20666;-58
2023/07/26 03:00:35;;;;;;;1.30;0.93;;;22.10;82.60;;;;;;5082556;28;20454;-56
2023/07/26 03:03:02;;;;;;;1.67;0.87;;;22.00;82.60;;;;;;5081932;28;20477;-57
2023/07/26 03:05:31;;;;;;;2.37;1.20;;;22.00;82.70;;;;;;5085164;28;20526;-58
2023/07/26 03:07:57;;;;;;;1.23;1.13;;;22.00;82.80;;;;;;5085403;28;20585;-57
2023/07/26 03:10:24;;;;;;;1.20;0.90;;;22.00;82.90;;;;;;5083908;28;20892;-58
2023/07/26 03:12:51;;;;;;;2.23;2.03;;;22.00;82.90;;;;;;5085033;28;20487;-58
2023/07/26 03:15:18;;;;;;;1.57;1.10;;;22.00;83.00;;;;;;5084574;28;20460;-54
2023/07/26 03:17:44;;;;;;;1.73;1.20;;;22.00;83.10;;;;;;5089488;28;20470;-57
2023/07/26 03:20:12;;;;;;;1.67;1.03;;;22.00;83.20;;;;;;5081851;28;20470;-57
2023/07/26 03:22:40;;;;;;;1.20;1.00;;;22.00;83.20;;;;;;5080508;28;20841;-56
2023/07/26 03:25:07;;;;;;;1.20;1.10;;;22.00;83.30;;;;;;5082833;28;20462;-58
2023/07/26 03:27:34;;;;;;;1.20;1.00;;;22.00;83.50;;;;;;5088384;28;20460;-58
2023/07/26 03:30:01;;;;;;;1.93;1.33;;;22.00;83.40;;;;;;5091981;28;20458;-58
2023/07/26 03:32:27;;;;;;;1.23;0.90;;;22.00;83.40;;;;;;5089709;28;20523;-57
2023/07/26 03:34:54;;;;;;;1.10;0.90;;;22.00;83.40;;;;;;5084774;28;20499;-57
2023/07/26 03:37:21;;;;;;;1.10;0.97;;;22.00;83.50;;;;;;5076349;28;20469;-58
2023/07/26 03:39:49;;;;;;;1.13;0.90;;;22.00;83.50;;;;;;5084459;28;20466;-57
2023/07/26 03:42:15;;;;;;;1.00;0.90;;;22.00;83.60;;;;;;5081193;28;21502;-54
2023/07/26 03:44:42;;;;;;;1.30;1.00;;;22.00;83.60;;;;;;5076789;28;21918;-58
2023/07/26 03:47:09;;;;;;;1.37;1.13;;;22.00;83.70;;;;;;5083338;28;20462;-58
2023/07/26 03:49:35;;;;;;;1.10;0.90;;;22.00;83.70;;;;;;5078722;28;20828;-57
2023/07/26 03:52:03;;;;;;;1.17;0.90;;;22.00;83.80;;;;;;5078423;28;20454;-56
2023/07/26 03:54:29;;;;;;;1.23;1.00;;;22.00;83.80;;;;;;5073670;28;20811;-58
2023/07/26 03:56:57;;;;;;;1.10;1.00;;;22.00;83.90;;;;;;5074126;28;20456;-57
2023/07/26 03:59:24;;;;;;;1.30;0.90;;;22.00;83.90;;;;;;5081192;28;20451;-57
2023/07/26 04:01:51;;;;;;;1.30;1.20;;;22.00;83.90;;;;;;5078057;28;21065;-57
2023/07/26 04:04:18;;;;;;;1.40;1.20;;;22.00;84.00;;;;;;5074032;28;21020;-55
2023/07/26 04:06:44;;;;;;;2.57;1.20;;;21.90;83.90;;;;;;5073155;28;20196;-58
2023/07/26 04:09:11;;;;;;;1.63;1.20;;;21.90;83.90;;;;;;5074956;28;20988;-57
2023/07/26 04:11:37;;;;;;;1.67;1.10;;;21.90;83.90;;;;;;5085791;28;20470;-56
2023/07/26 04:14:06;;;;;;;1.93;1.10;;;21.90;83.90;;;;;;5083585;28;20479;-57
2023/07/26 04:16:32;;;;;;;1.20;1.03;;;21.90;83.90;;;;;;5085443;28;20461;-58
2023/07/26 04:18:59;;;;;;;1.17;0.90;;;21.90;84.00;;;;;;5082544;28;20455;-53
2023/07/26 04:21:26;;;;;;;1.70;1.00;;;21.90;84.10;;;;;;5079284;28;20988;-58
2023/07/26 04:23:52;;;;;;;1.10;1.00;;;21.90;84.10;;;;;;5076609;28;20473;-57
2023/07/26 04:26:19;;;;;;;2.00;1.15;;;21.90;84.20;;;;;;5076923;28;20451;-58
2023/07/26 04:28:46;;;;;;;1.17;1.07;;;21.90;84.20;;;;;;5077020;28;20308;-56
2023/07/26 04:31:14;;;;;;;1.80;1.07;;;21.90;84.30;;;;;;5071236;28;20452;-57
2023/07/26 04:33:41;;;;;;;1.30;1.00;;;21.90;84.30;;;;;;5079086;28;20484;-58
2023/07/26 04:36:08;;;;;;;1.20;1.00;;;21.90;84.30;;;;;;5070994;28;21418;-57
2023/07/26 04:38:34;;;;;;;2.00;1.33;;;21.90;84.30;;;;;;5077900;28;21041;-57
2023/07/26 04:41:01;;;;;;;1.13;1.00;;;21.90;84.30;;;;;;5083436;28;20465;-55
2023/07/26 04:43:28;;;;;;;1.27;1.00;;;21.90;84.40;;;;;;5081149;28;20965;-59
2023/07/26 04:45:55;;;;;;;1.20;0.93;;;21.90;84.50;;;;;;5072279;28;20483;-56
2023/07/26 04:48:23;;;;;;;1.57;1.20;;;21.90;84.40;;;;;;5075378;28;20458;-57
2023/07/26 04:50:50;;;;;;;1.52;1.23;;;21.90;84.50;;;;;;5072815;28;20460;-56
2023/07/26 04:53:17;;;;;;;1.50;1.00;;;21.90;84.50;;;;;;5078286;28;20196;-59
2023/07/26 04:55:45;;;;;;;1.27;1.10;;;21.80;84.50;;;;;;5076104;28;20447;-58
2023/07/26 04:58:12;;;;;;;1.20;1.10;;;21.90;84.60;;;;;;5072551;28;20462;-55
2023/07/26 05:00:39;;;;;;;1.38;1.25;;;21.90;84.70;;;;;;5078568;28;20467;-57
2023/07/26 05:03:06;;;;;;;1.30;1.02;;;21.80;84.70;;;;;;5083462;28;20201;-57
2023/07/26 05:05:35;;;;;;;1.30;1.00;;;21.80;84.70;;;;;;5084582;28;20208;-57
2023/07/26 05:08:02;;;;;;;1.27;1.10;;;21.80;84.80;;;;;;5086790;28;20467;-55
2023/07/26 05:10:29;;;;;;;1.30;1.10;;;21.80;84.80;;;;;;5087220;28;20753;-57
2023/07/26 05:12:57;;;;;;;2.33;1.40;;;21.80;84.80;;;;;;5084270;28;20460;-57
2023/07/26 05:15:24;;;;;;;1.10;1.00;;;21.80;84.90;;;;;;5084336;28;20482;-57
2023/07/26 05:17:51;;;;;;;1.30;1.00;;;21.80;85.00;;;;;;5080192;28;20463;-57
2023/07/26 05:20:18;;;;;;;1.27;1.10;;;21.80;85.10;;;;;;5086058;28;20462;-58
2023/07/26 05:22:46;;;;;;;1.20;1.00;;;21.80;85.20;;;;;;5086715;28;20213;-57
2023/07/26 05:25:13;;;;;;;1.10;1.00;;;21.80;85.20;;;;;;5085417;28;20465;-58
2023/07/26 05:27:40;;;;;;;2.27;1.00;;;21.80;85.20;;;;;;5087066;28;20458;-57
2023/07/26 05:30:08;;;;;;;1.27;1.17;;;21.80;85.30;;;;;;5085579;28;20456;-56
2023/07/26 05:32:35;;;;;;;1.07;0.93;;;21.80;85.30;;;;;;5077754;28;21211;-58
2023/07/26 05:35:02;;;;;;;1.30;1.00;;;21.80;85.30;;;;;;5077743;28;20487;-57
2023/07/26 05:37:34;;;;;;;1.50;1.30;;;21.80;85.40;;;;;;5074444;28;21359;-57
2023/07/26 05:40:02;;;;;;;1.40;1.27;;;21.80;85.50;;;;;;5075249;28;20842;-56
2023/07/26 05:42:29;;;;;;;2.20;1.33;;;21.80;85.50;;;;;;5080314;28;20839;-58
2023/07/26 05:44:56;;;;;;;1.53;1.00;;;21.80;85.60;;;;;;5076464;28;20463;-58
2023/07/26 05:47:22;;;;;;;1.50;0.90;;;21.80;85.60;;;;;;5076338;27;20745;-58
2023/07/26 05:49:49;;;;;;;1.20;1.00;;;21.80;85.60;;;;;;5088835;28;20455;-58
2023/07/26 05:52:16;;;;;;;1.30;0.90;;;21.80;85.60;;;;;;5073237;28;20197;-57
2023/07/26 05:54:43;;;;;;;1.97;1.10;;;21.80;85.80;;;;;;5077739;28;20566;-56
2023/07/26 05:57:11;;;;;;;1.10;0.90;;;21.80;85.70;;;;;;5082229;28;20474;-56
2023/07/26 05:59:37;;;;;;;1.20;1.10;;;21.80;85.70;;;;;;5075026;28;20212;-57
2023/07/26 06:02:05;;;;;;;1.30;1.10;;;21.80;85.80;;;;;;5069135;28;20193;-56
2023/07/26 06:04:31;;;;;;;1.65;1.10;;;21.80;85.90;;;;;;5076737;28;20460;-57
2023/07/26 06:06:58;;;;;;;1.80;1.60;;;21.80;86.00;;;;;;5074012;28;20198;-59
2023/07/26 06:09:26;;;;;;;2.17;1.07;;;21.80;85.90;;;;;;5077041;28;21096;-58
2023/07/26 06:11:52;;;;;;;1.30;1.20;;;21.80;85.90;;;;;;5080135;28;20965;-59
2023/07/26 06:14:21;;;;;;;1.27;1.13;;;21.80;85.90;;;;;;5080836;28;20483;-57
2023/07/26 06:16:48;;;;;;;1.20;1.10;;;21.80;85.80;;;;;;5068695;28;20199;-58
2023/07/26 06:19:14;;;;;;;1.90;1.30;;;21.80;86.10;;;;;;5080897;28;20450;-57
2023/07/26 06:21:41;;;;;;;1.83;1.20;;;21.90;86.30;;;;;;5087032;28;20463;-56
2023/07/26 06:24:08;;;;;;;1.50;1.17;;;21.80;86.30;;;;;;5094136;28;20459;-58
2023/07/26 06:26:35;;;;;;;2.20;1.33;;;21.90;86.40;;;;;;5093062;28;20784;-58
2023/07/26 06:29:02;;;;;;;1.30;1.17;;;21.90;86.50;;;;;;5082375;28;20462;-58
2023/07/26 06:31:30;;;;;;;2.10;1.53;;;21.90;86.70;;;;;;5073625;28;20460;-58
2023/07/26 06:33:57;;;;;;;3.10;1.50;;;21.90;87.20;;;;;;5082478;28;20458;-56
2023/07/26 06:36:23;;;;;;;2.27;1.43;;;21.90;87.60;;;;;;5080067;28;20499;-57
2023/07/26 06:38:50;;;;;;;2.50;1.20;;;21.90;87.60;;;;;;5081550;28;20470;-58
2023/07/26 06:41:17;;;;;;;1.23;1.08;;;21.90;87.50;;;;;;5087274;28;21218;-55
2023/07/26 06:43:44;;;;;;;1.53;1.00;;;21.90;87.90;;;;;;5083961;28;20198;-57
2023/07/26 06:46:11;;;;;;;1.50;1.40;;;21.90;88.20;;;;;;5083018;28;20811;-53
2023/07/26 06:48:39;;;;;;;1.60;1.50;;;21.90;88.30;;;;;;5082323;28;20824;-58
2023/07/26 06:51:05;;;;;;;2.33;1.43;;;21.90;88.00;;;;;;5083797;28;20459;-57
2023/07/26 06:53:32;;;;;;;1.70;1.23;;;21.90;87.90;;;;;;5084278;28;20456;-51
2023/07/26 06:55:59;;;;;;;1.70;1.40;;;21.90;88.30;;;;;;5084384;28;20505;-50
2023/07/26 06:58:26;;;;;;;102.73;6.93;;;21.90;88.80;;;;;;5089551;28;20459;-60
2023/07/26 07:00:54;;;;;;;1.40;1.20;;;22.00;89.30;;;;;;5088358;28;20459;-60
2023/07/26 07:03:20;;;;;;;53.17;3.23;;;22.00;88.90;;;;;;5085344;28;20446;-56
2023/07/26 07:05:48;;;;;;;2.83;1.73;;;22.10;88.90;;;;;;5076840;28;20467;-63
2023/07/26 07:08:15;;;;;;;3.33;2.10;;;22.10;88.90;;;;;;5076028;28;20451;-52
2023/07/26 07:10:42;;;;;;;2.33;1.20;;;22.20;91.10;;;;;;5074973;28;20780;-54
2023/07/26 07:13:08;;;;;;;2.93;2.10;;;22.20;88.60;;;;;;5076293;28;20452;-55
2023/07/26 07:15:35;;;;;;;4.00;1.70;;;22.20;88.40;;;;;;5077435;28;20815;-52
2023/07/26 07:18:02;;;;;;;3.40;1.50;;;22.20;88.50;;;;;;5079011;28;20456;-60
2023/07/26 07:20:29;;;;;;;3.57;1.90;;;22.20;88.90;;;;;;5080430;28;20459;-51
2023/07/26 07:22:57;;;;;;;4.40;1.33;;;22.20;88.90;;;;;;5084503;28;21105;-53
2023/07/26 07:25:24;;;;;;;3.77;1.80;;;22.20;88.90;;;;;;5085719;28;20443;-53
2023/07/26 07:27:50;;;;;;;2.40;1.37;;;22.20;89.10;;;;;;5087972;28;20469;-52
2023/07/26 07:30:17;;;;;;;2.30;1.73;;;22.20;88.90;;;;;;5085935;28;20455;-47
2023/07/26 07:32:44;;;;;;;1.73;1.57;;;22.20;89.20;;;;;;5071849;28;20463;-61
2023/07/26 07:35:11;;;;;;;3.23;1.70;;;22.20;89.00;;;;;;5076900;28;20584;-61
2023/07/26 07:37:37;;;;;;;1.87;1.50;;;22.30;89.30;;;;;;5074449;28;20808;-57
2023/07/26 07:40:07;;;;;;;2.90;1.70;;;22.30;89.00;;;;;;5076181;28;20831;-59
2023/07/26 07:42:34;;;;;;;4.60;1.40;;;22.30;88.80;;;;;;5072271;28;20463;-58
2023/07/26 07:45:01;;;;;;;2.13;1.30;;;22.40;88.80;;;;;;5075930;28;20554;-58
2023/07/26 07:47:27;;;;;;;2.10;1.70;;;22.40;88.50;;;;;;5075174;28;20459;-57
2023/07/26 07:49:54;;;;;;;2.10;1.47;;;22.40;88.30;;;;;;5081916;28;20467;-61
2023/07/26 07:52:21;;;;;;;2.17;1.80;;;22.40;88.00;;;;;;5076454;28;20460;-54
2023/07/26 07:54:47;;;;;;;4.17;1.90;;;22.40;87.90;;;;;;5088175;28;20972;-59
2023/07/26 07:57:17;;;;;;;4.33;2.33;;;22.40;87.90;;;;;;5086167;28;20458;-54
2023/07/26 07:59:44;;;;;;;3.93;2.10;;;22.40;87.40;;;;;;5085294;28;20962;-59
2023/07/26 08:02:10;;;;;;;2.17;1.60;;;22.40;87.30;;;;;;5082050;28;20478;-55
2023/07/26 08:04:38;;;;;;;2.20;1.83;;;22.40;88.10;;;;;;5079366;28;20848;-56
2023/07/26 08:07:06;;;;;;;3.37;1.57;;;22.40;87.10;;;;;;5083350;28;20458;-56
2023/07/26 08:09:33;;;;;;;4.37;1.73;;;22.40;87.10;;;;;;5090161;28;20584;-57
2023/07/26 08:12:00;;;;;;;2.00;1.77;;;22.40;87.10;;;;;;5089348;28;20459;-54
2023/07/26 08:14:28;;;;;;;3.33;1.70;;;22.50;87.20;;;;;;5087384;28;20534;-56
2023/07/26 08:16:55;;;;;;;7.47;1.97;;;22.40;87.90;;;;;;5089647;28;20464;-55
2023/07/26 08:19:22;;;;;;;2.80;2.07;;;22.40;87.90;;;;;;5088727;28;20461;-55
2023/07/26 08:21:48;;;;;;;3.50;2.00;;;22.50;87.80;;;;;;5087635;28;20851;-62
2023/07/26 08:24:15;;;;;;;3.53;1.70;;;22.60;88.40;;;;;;5089850;28;20466;-69
2023/07/26 08:26:42;;;;;;;4.80;2.10;;;22.60;87.40;;;;;;5085522;28;20874;-59
2023/07/26 08:29:10;;;;;;;18.30;2.50;;;22.70;87.90;;;;;;5090213;28;20470;-66
2023/07/26 08:31:39;;;;;;;5.40;2.57;;;22.70;87.50;;;;;;5085406;28;20534;-67
2023/07/26 08:34:06;;;;;;;3.47;2.45;;;22.80;87.70;;;;;;5079929;27;20956;-52
2023/07/26 08:36:33;;;;;;;3.50;2.70;;;22.70;86.50;;;;;;5090982;28;20240;-53
2023/07/26 08:39:00;;;;;;;4.17;2.73;;;22.70;86.60;;;;;;5088149;28;20497;-47
2023/07/26 08:41:29;;;;;;;5.93;2.83;;;22.70;86.80;;;;;;5081700;28;20455;-53
2023/07/26 08:43:56;;;;;;;8.00;2.10;;;22.70;87.00;;;;;;5086831;28;20459;-49
2023/07/26 08:46:24;;;;;;;2.60;1.87;;;22.70;87.20;;;;;;5086296;28;20470;-55
2023/07/26 08:48:53;;;;;;;8.57;3.03;;;22.80;87.90;;;;;;5090684;28;20462;-50
2023/07/26 08:51:21;;;;;;;2.80;1.97;;;22.80;87.60;;;;;;5088214;28;20447;-62
2023/07/26 08:53:49;;;;;;;4.93;2.67;;;22.80;87.90;;;;;;5082563;28;20459;-53
2023/07/26 08:56:16;;;;;;;4.90;2.23;;;22.80;87.90;;;;;;5089810;28;20527;-58
2023/07/26 08:58:43;;;;;;;2.67;2.47;;;22.80;88.00;;;;;;5084923;28;20815;-51
2023/07/26 09:01:10;;;;;;;7.30;1.93;;;22.80;87.90;;;;;;5085334;28;20826;-55
2023/07/26 09:03:37;;;;;;;2.33;2.13;;;22.80;87.90;;;;;;5088998;28;20459;-58
2023/07/26 09:06:06;;;;;;;4.23;2.13;;;22.80;87.80;;;;;;5091350;28;20452;-52
2023/07/26 09:08:33;;;;;;;3.70;2.03;;;22.90;88.00;;;;;;5089441;28;20946;-50
2023/07/26 09:11:03;;;;;;;5.50;2.40;;;22.90;88.10;;;;;;5088783;28;20459;-57
2023/07/26 09:13:30;;;;;;;2.67;2.47;;;22.90;88.10;;;;;;5092399;28;20445;-55
2023/07/26 09:16:00;;;;;;;2.57;2.20;;;23.00;86.50;;;;;;5083276;28;20476;-56
2023/07/26 09:18:28;;;;;;;2.63;2.43;;;22.90;86.00;;;;;;5085972;28;20452;-51
2023/07/26 09:21:01;;;;;;;2.70;2.50;;;22.90;85.60;;;;;;5091637;28;20452;-51
2023/07/26 09:23:29;;;;;;;3.87;1.97;;;22.90;85.30;;;;;;5091561;28;20577;-54
2023/07/26 09:25:56;;;;;;;6.03;2.57;;;22.80;84.90;;;;;;5091878;28;20454;-54
2023/07/26 09:28:24;;;;;;;5.87;2.53;;;22.90;85.00;;;;;;5087420;27;20669;-55
2023/07/26 09:30:51;;;;;;;3.20;2.30;;;22.90;84.80;;;;;;5088556;28;20456;-53
2023/07/26 09:33:18;;;;;;;4.80;2.57;;;22.90;84.50;;;;;;5088567;28;20478;-52
2023/07/26 09:35:46;;;;;;;5.23;2.10;;;22.90;84.10;;;;;;5085632;28;20487;-51
2023/07/26 09:38:14;;;;;;;2.43;1.83;;;23.00;84.60;;;;;;5083174;28;20451;-54
2023/07/26 09:40:42;;;;;;;3.30;2.50;;;23.10;84.00;;;;;;5090242;28;20465;-52
2023/07/26 09:43:09;;;;;;;3.00;2.70;;;23.10;83.30;;;;;;5089928;28;20444;-52
2023/07/26 09:45:36;;;;;;;3.73;2.57;;;23.10;83.60;;;;;;5091012;28;20631;-56
2023/07/26 09:48:07;;;;;;;4.73;2.30;;;23.10;82.60;;;;;;5092389;28;20827;-53
2023/07/26 09:50:35;;;;;;;2.90;2.70;;;23.00;83.10;;;;;;5090077;28;20468;-53
2023/07/26 09:53:03;;;;;;;4.53;2.60;;;23.10;83.00;;;;;;5088191;28;20964;-48
2023/07/26 09:55:30;;;;;;;2.63;2.43;;;23.10;83.10;;;;;;5086038;28;21029;-50
2023/07/26 09:58:00;;;;;;;2.63;2.40;;;23.10;82.50;;;;;;5087900;28;20459;-54
2023/07/26 10:00:28;;;;;;;2.83;2.63;;;23.10;82.20;;;;;;5083293;28;20990;-51
2023/07/26 10:02:58;;;;;;;4.00;2.70;;;23.10;82.00;;;;;;5089262;28;20462;-54
2023/07/26 10:05:26;;;;;;;4.33;2.23;;;23.10;82.10;;;;;;5091433;28;20464;-52
2023/07/26 10:07:54;;;;;;;2.97;2.70;;;23.10;81.30;;;;;;5086818;28;20463;-49
2023/07/26 10:10:22;;;;;;;2.87;2.50;;;23.10;81.80;;;;;;5092980;28;20827;-49
2023/07/26 10:12:57;;;;;;;3.90;2.90;;;23.10;81.40;;;;;;5093134;28;20542;-50
2023/07/26 10:15:33;;;;;;;4.13;2.70;;;23.10;80.90;;;;;;5084491;28;20531;-52
2023/07/26 10:18:00;;;;;;;5.70;3.53;;;23.10;80.80;;;;;;5086337;28;20466;-54
2023/07/26 10:20:27;;;;;;;8.27;2.97;;;23.10;80.00;;;;;;5087137;28;20940;-50
2023/07/26 10:23:00;;;;;;;4.70;3.30;;;23.10;80.10;;;;;;5089165;28;20936;-53
2023/07/26 10:25:29;;;;;;;3.17;2.53;;;23.10;79.80;;;;;;5084926;28;20826;-53
2023/07/26 10:27:56;;;;;;;3.33;3.10;;;23.10;79.20;;;;;;5087911;28;20455;-52
2023/07/26 10:30:25;;;;;;;2.53;2.30;;;23.10;78.70;;;;;;5086858;28;21109;-49
2023/07/26 10:32:52;;;;;;;4.30;2.83;;;23.10;78.40;;;;;;5082205;28;22847;-42
2023/07/26 10:35:30;;;;;;;2.73;2.07;;;23.10;77.90;;;;;;5087344;28;20479;-51
2023/07/26 10:37:59;;;;;;;3.37;2.20;;;23.00;78.00;;;;;;5089004;28;20826;-56
2023/07/26 10:40:33;;;;;;;5.00;3.07;;;23.10;78.00;;;;;;5085165;28;20459;-59
2023/07/26 10:43:00;;;;;;;2.43;2.23;;;23.10;77.80;;;;;;5086022;28;20459;-56
2023/07/26 10:45:42;;;;;;;2.27;1.87;;;23.10;77.60;;;;;;5084261;28;20461;-55
2023/07/26 10:48:27;;;;;;;6.10;2.60;;;23.10;77.20;;;;;;5089104;28;21061;-59
2023/07/26 10:50:56;;;;;;;2.10;1.90;;;23.10;77.30;;;;;;5090940;28;20524;-55
2023/07/26 10:53:32;;;;;;;5.73;1.90;;;23.10;77.40;;;;;;5088181;28;20448;-54
2023/07/26 10:56:10;;;;;;;1.67;1.53;;;23.10;77.60;;;;;;5079264;28;21016;-54
2023/07/26 10:58:36;;;;;;;2.20;2.00;;;23.10;77.50;;;;;;5089337;28;20452;-53
2023/07/26 11:01:05;;;;;;;2.77;1.93;;;23.10;77.30;;;;;;5088125;28;20491;-54
2023/07/26 11:03:31;;;;;;;1.60;1.50;;;23.10;77.70;;;;;;5090520;28;20466;-56
2023/07/26 11:05:58;;;;;;;2.00;1.67;;;23.10;77.60;;;;;;5088827;28;20461;-54
2023/07/26 11:08:42;;;;;;;3.27;2.30;;;23.20;77.70;;;;;;5088795;28;20472;-52
2023/07/26 11:11:08;;;;;;;1.70;1.47;;;23.20;78.00;;;;;;5087778;28;20470;-49
2023/07/26 11:13:35;;;;;;;1.77;1.50;;;23.20;78.10;;;;;;5090391;28;20470;-53
2023/07/26 11:16:04;;;;;;;2.10;1.90;;;23.20;78.20;;;;;;5088027;28;20486;-51
2023/07/26 11:18:39;;;;;;;3.97;2.27;;;23.20;78.40;;;;;;5085203;28;22678;-45
2023/07/26 11:21:06;;;;;;;2.07;1.60;;;23.20;78.50;;;;;;5088716;28;20550;-54
2023/07/26 11:23:33;;;;;;;3.00;1.70;;;23.20;78.70;;;;;;5084852;28;20482;-55
2023/07/26 11:26:01;;;;;;;2.50;2.30;;;23.20;78.80;;;;;;5088571;28;20551;-49
2023/07/26 11:28:31;;;;;;;2.37;1.90;;;23.30;79.10;;;;;;5086860;28;20831;-53
2023/07/26 11:30:58;;;;;;;1.90;1.80;;;23.30;79.30;;;;;;5087881;28;20463;-51
2023/07/26 11:33:33;;;;;;;1.90;1.67;;;23.30;79.40;;;;;;5087489;28;20895;-51
2023/07/26 11:36:02;;;;;;;1.53;1.43;;;23.20;78.40;;;;;;5086199;28;20488;-50
2023/07/26 11:38:29;;;;;;;2.00;1.77;;;23.20;78.70;;;;;;5082999;28;20456;-47
2023/07/26 11:40:56;;;;;;;4.30;1.77;;;23.20;78.70;;;;;;5090799;28;20828;-44
2023/07/26 11:43:25;;;;;;;2.23;2.03;;;23.20;78.60;;;;;;5086985;28;20492;-46
2023/07/26 11:45:51;;;;;;;2.10;2.00;;;23.20;78.70;;;;;;5088989;28;20458;-44
2023/07/26 11:48:19;;;;;;;1.83;1.50;;;23.20;78.80;;;;;;5083530;28;20455;-51
2023/07/26 11:50:47;;;;;;;2.03;1.83;;;23.20;78.70;;;;;;5089749;28;20835;-44
2023/07/26 11:53:15;;;;;;;1.87;1.70;;;23.20;78.90;;;;;;5086609;28;20505;-43
2023/07/26 11:55:44;;;;;;;3.20;2.20;;;23.20;78.90;;;;;;5088251;28;20533;-45
2023/07/26 11:58:12;;;;;;;2.07;1.97;;;23.20;78.90;;;;;;5095329;28;20442;-47
2023/07/26 12:00:42;;;;;;;2.97;1.93;;;23.20;79.00;;;;;;5085675;28;20466;-50
2023/07/26 12:03:09;;;;;;;1.87;1.77;;;23.20;79.10;;;;;;5086223;28;20473;-49
2023/07/26 12:05:36;;;;;;;3.10;1.80;;;23.20;79.10;;;;;;5086784;28;20462;-47
2023/07/26 12:08:07;;;;;;;1.97;1.77;;;23.20;79.20;;;;;;5082231;28;20460;-50
2023/07/26 12:10:35;;;;;;;1.77;1.67;;;23.20;79.10;;;;;;5087133;28;20490;-49
2023/07/26 12:13:07;;;;;;;1.87;1.67;;;23.20;79.20;;;;;;5084315;28;20449;-50
2023/07/26 12:15:48;;;;;;;1.63;1.40;;;23.20;79.20;;;;;;5082668;28;20471;-49
2023/07/26 12:18:15;;;;;;;2.60;1.90;;;23.20;79.40;;;;;;5085668;28;20978;-47
2023/07/26 12:20:56;;;;;;;2.00;1.80;;;23.20;79.20;;;;;;5085068;28;20441;-46
2023/07/26 12:23:24;;;;;;;1.87;1.70;;;23.20;79.30;;;;;;5073367;28;20556;-47
2023/07/26 12:25:54;;;;;;;1.53;1.43;;;23.20;79.40;;;;;;5081099;28;20461;-53
2023/07/26 12:28:21;;;;;;;1.80;1.40;;;23.20;79.40;;;;;;5090791;28;20446;-49
2023/07/26 12:30:53;;;;;;;1.70;1.60;;;23.20;79.40;;;;;;5083760;28;20970;-48
2023/07/26 12:33:20;;;;;;;1.60;1.50;;;23.30;79.60;;;;;;5085607;28;20585;-45
2023/07/26 12:35:46;;;;;;;2.53;2.17;;;23.30;79.50;;;;;;5080867;28;20493;-49
2023/07/26 12:38:17;;;;;;;1.60;1.50;;;23.20;79.50;;;;;;5079370;28;20940;-45
2023/07/26 12:40:47;;;;;;;1.77;1.67;;;23.20;79.50;;;;;;5085180;28;20509;-47
2023/07/26 12:43:25;;;;;;;2.40;1.77;;;23.30;79.60;;;;;;5087467;28;20459;-48
2023/07/26 12:45:53;;;;;;;1.87;1.67;;;23.30;79.70;;;;;;5086499;28;20455;-49
2023/07/26 12:48:20;;;;;;;2.00;1.80;;;23.30;79.70;;;;;;5086502;28;20918;-49